createdAt,value
2023-05-19T00:00:39.774Z,5.20
2023-05-19T00:02:05.989Z,5.30
2023-05-19T00:03:29.239Z,5.20
2023-05-19T00:04:52.008Z,5.53
2023-05-19T00:06:13.898Z,5.47
2023-05-19T00:09:04.174Z,5.13
2023-05-19T00:10:30.584Z,6.53
2023-05-19T00:11:59.676Z,5.32
2023-05-19T00:13:23.304Z,5.88
2023-05-19T00:14:45.006Z,5.80
2023-05-19T00:16:08.139Z,5.50
2023-05-19T00:17:34.525Z,5.22
2023-05-19T00:18:59.746Z,5.75
2023-05-19T00:20:25.848Z,7.18
2023-05-19T00:21:47.185Z,6.55
2023-05-19T00:23:09.731Z,5.38
2023-05-19T00:24:31.929Z,5.78
2023-05-19T00:25:54.186Z,4.68
2023-05-19T00:27:16.623Z,5.85
2023-05-19T00:28:38.067Z,5.47
2023-05-19T00:31:24.491Z,5.53
2023-05-19T00:32:48.001Z,5.60
2023-05-19T00:34:10.466Z,5.43
2023-05-19T00:35:31.630Z,5.72
2023-05-19T00:36:53.902Z,5.20
2023-05-19T00:38:16.917Z,6.43
2023-05-19T00:39:39.006Z,5.75
2023-05-19T00:41:00.495Z,5.53
2023-05-19T00:42:22.983Z,5.22
2023-05-19T00:43:44.384Z,5.45
2023-05-19T00:45:08.097Z,5.13
2023-05-19T00:46:31.085Z,5.50
2023-05-19T00:47:53.963Z,5.43
2023-05-19T00:49:16.089Z,5.38
2023-05-19T00:50:37.332Z,5.75
2023-05-19T00:52:00.990Z,5.57
2023-05-19T00:53:24.848Z,5.45
2023-05-19T00:54:47.744Z,5.15
2023-05-19T00:56:09.031Z,6.07
2023-05-19T00:57:31.359Z,5.57
2023-05-19T00:58:52.444Z,5.38
2023-05-19T01:00:16.426Z,5.25
2023-05-19T01:01:38.803Z,5.47
2023-05-19T01:03:01.933Z,4.88
2023-05-19T01:04:25.732Z,5.45
2023-05-19T01:05:47.722Z,5.07
2023-05-19T01:07:10.598Z,5.38
2023-05-19T01:08:32.833Z,5.28
2023-05-19T01:09:55.073Z,5.97
2023-05-19T01:11:17.298Z,5.43
2023-05-19T01:12:38.712Z,6.15
2023-05-19T01:14:01.013Z,5.40
2023-05-19T01:15:23.073Z,5.85
2023-05-19T01:16:50.044Z,5.55
2023-05-19T01:18:16.842Z,6.00
2023-05-19T01:19:56.445Z,5.30
2023-05-19T01:21:36.615Z,5.20
2023-05-19T01:23:27.752Z,5.60
2023-05-19T01:25:31.831Z,5.47
2023-05-19T01:27:14.776Z,5.68
2023-05-19T01:29:04.431Z,5.50
2023-05-19T01:30:32.420Z,5.20
2023-05-19T01:31:57.004Z,5.97
2023-05-19T01:33:19.389Z,5.47
2023-05-19T01:34:45.588Z,5.43
2023-05-19T01:36:10.353Z,6.57
2023-05-19T01:37:32.310Z,6.25
2023-05-19T01:38:57.714Z,6.35
2023-05-19T01:40:20.134Z,5.30
2023-05-19T01:41:43.645Z,5.95
2023-05-19T01:43:04.988Z,5.65
2023-05-19T01:44:27.365Z,6.07
2023-05-19T01:45:52.810Z,6.10
2023-05-19T01:47:16.426Z,5.82
2023-05-19T01:48:38.620Z,6.03
2023-05-19T01:51:23.127Z,5.18
2023-05-19T01:52:44.146Z,5.80
2023-05-19T01:54:06.083Z,6.03
2023-05-19T01:55:27.378Z,5.95
2023-05-19T01:56:57.344Z,6.25
2023-05-19T01:58:25.162Z,5.93
2023-05-19T01:59:53.637Z,5.90
2023-05-19T02:01:30.400Z,6.63
2023-05-19T02:02:59.821Z,5.78
2023-05-19T02:04:31.573Z,5.68
2023-05-19T02:05:59.591Z,5.70
2023-05-19T02:07:32.785Z,5.70
2023-05-19T02:09:02.255Z,6.15
2023-05-19T02:10:32.014Z,5.78
2023-05-19T02:11:56.380Z,6.30
2023-05-19T02:13:25.879Z,5.97
2023-05-19T02:14:52.296Z,6.47
2023-05-19T02:16:19.028Z,5.63
2023-05-19T02:17:47.991Z,5.43
2023-05-19T02:19:22.275Z,6.00
2023-05-19T02:20:45.233Z,5.50
2023-05-19T02:22:08.582Z,5.72
2023-05-19T02:23:30.561Z,7.25
2023-05-19T02:24:52.148Z,6.35
2023-05-19T02:26:14.475Z,5.88
2023-05-19T02:27:40.257Z,6.70
2023-05-19T02:29:01.719Z,6.00
2023-05-19T02:30:24.384Z,6.05
2023-05-19T02:31:46.632Z,5.45
2023-05-19T02:33:11.539Z,6.15
2023-05-19T02:34:34.111Z,7.00
2023-05-19T02:35:55.293Z,5.78
2023-05-19T02:37:18.884Z,6.28
2023-05-19T02:38:41.488Z,6.05
2023-05-19T02:40:02.664Z,6.20
2023-05-19T02:41:25.077Z,6.53
2023-05-19T02:42:47.336Z,6.10
2023-05-19T02:44:09.007Z,6.75
2023-05-19T02:45:32.172Z,6.07
2023-05-19T02:46:53.400Z,5.90
2023-05-19T02:48:17.910Z,6.00
2023-05-19T02:49:38.952Z,6.20
2023-05-19T02:51:00.855Z,6.05
2023-05-19T02:53:44.172Z,6.07
2023-05-19T02:55:06.153Z,5.80
2023-05-19T02:56:28.315Z,5.82
2023-05-19T02:57:52.633Z,5.47
2023-05-19T02:59:14.026Z,6.18
2023-05-19T03:00:36.085Z,6.03
2023-05-19T03:02:02.132Z,5.38
2023-05-19T03:03:26.233Z,5.28
2023-05-19T03:04:47.471Z,6.38
2023-05-19T03:06:10.004Z,5.97
2023-05-19T03:07:31.335Z,6.13
2023-05-19T03:08:56.114Z,5.78
2023-05-19T03:10:18.623Z,5.72
2023-05-19T03:12:06.733Z,5.50
2023-05-19T03:13:28.883Z,5.90
2023-05-19T03:14:51.479Z,6.10
2023-05-19T03:16:15.577Z,5.97
2023-05-19T03:17:36.744Z,6.40
2023-05-19T03:19:00.841Z,5.90
2023-05-19T03:20:23.419Z,5.32
2023-05-19T03:21:51.451Z,5.70
2023-05-19T03:23:13.617Z,6.55
2023-05-19T03:24:35.286Z,5.60
2023-05-19T03:25:57.965Z,5.40
2023-05-19T03:27:19.360Z,6.45
2023-05-19T03:28:50.928Z,5.47
2023-05-19T03:30:13.547Z,6.30
2023-05-19T03:31:52.221Z,6.05
2023-05-19T03:33:20.412Z,6.78
2023-05-19T03:34:42.960Z,6.60
2023-05-19T03:36:08.148Z,6.45
2023-05-19T03:37:33.794Z,6.07
2023-05-19T03:39:01.289Z,5.93
2023-05-19T03:40:27.377Z,5.95
2023-05-19T03:43:20.642Z,6.40
2023-05-19T03:44:48.835Z,6.63
2023-05-19T03:46:11.405Z,6.15
2023-05-19T03:47:50.650Z,6.13
2023-05-19T03:49:31.896Z,6.70
2023-05-19T03:51:35.010Z,6.53
2023-05-19T03:53:17.693Z,6.63
2023-05-19T03:54:39.854Z,6.13
2023-05-19T03:57:24.161Z,6.65
2023-05-19T03:58:47.137Z,6.00
2023-05-19T04:00:12.424Z,6.68
2023-05-19T04:01:33.586Z,6.38
2023-05-19T04:02:55.898Z,5.78
2023-05-19T04:04:18.397Z,7.40
2023-05-19T04:05:40.301Z,6.63
2023-05-19T04:07:03.663Z,6.77
2023-05-19T04:08:26.238Z,7.80
2023-05-19T04:09:59.518Z,6.25
2023-05-19T04:11:26.961Z,6.82
2023-05-19T04:12:48.521Z,7.00
2023-05-19T04:14:11.708Z,7.32
2023-05-19T04:15:34.257Z,7.00
2023-05-19T04:16:56.572Z,7.10
2023-05-19T04:18:17.777Z,7.28
2023-05-19T04:19:40.390Z,6.70
2023-05-19T04:21:01.913Z,7.35
2023-05-19T04:22:25.375Z,6.95
2023-05-19T04:23:47.467Z,7.25
2023-05-19T04:25:10.332Z,7.20
2023-05-19T04:26:34.652Z,7.55
2023-05-19T04:27:58.029Z,6.43
2023-05-19T04:29:20.707Z,6.95
2023-05-19T04:30:42.659Z,6.68
2023-05-19T04:33:29.978Z,7.00
2023-05-19T04:34:51.906Z,6.68
2023-05-19T04:36:21.564Z,6.70
2023-05-19T04:37:46.692Z,7.38
2023-05-19T04:39:12.287Z,6.88
2023-05-19T04:40:37.287Z,6.57
2023-05-19T04:41:58.604Z,6.13
2023-05-19T04:43:22.407Z,6.93
2023-05-19T04:44:50.128Z,6.60
2023-05-19T04:46:13.912Z,6.38
2023-05-19T04:47:38.420Z,6.63
2023-05-19T04:49:06.969Z,6.40
2023-05-19T04:50:31.318Z,6.45
2023-05-19T04:51:55.501Z,6.85
2023-05-19T04:53:23.097Z,5.78
2023-05-19T04:54:44.428Z,6.32
2023-05-19T04:56:10.054Z,6.00
2023-05-19T04:57:31.963Z,6.38
2023-05-19T04:58:54.166Z,6.20
2023-05-19T05:00:17.823Z,5.85
2023-05-19T05:02:00.314Z,6.03
2023-05-19T05:03:25.385Z,5.55
2023-05-19T05:04:49.388Z,5.15
2023-05-19T05:06:10.639Z,5.78
2023-05-19T05:07:33.669Z,6.10
2023-05-19T05:08:58.192Z,5.63
2023-05-19T05:10:20.888Z,4.88
2023-05-19T05:11:44.461Z,5.82
2023-05-19T05:13:07.025Z,4.97
2023-05-19T05:14:29.719Z,5.65
2023-05-19T05:15:52.459Z,5.30
2023-05-19T05:17:16.253Z,4.95
2023-05-19T05:18:38.806Z,5.00
2023-05-19T05:20:01.844Z,4.45
2023-05-19T05:21:25.006Z,5.00
2023-05-19T05:22:46.599Z,4.78
2023-05-19T05:24:12.560Z,4.80
2023-05-19T05:25:37.672Z,5.72
2023-05-19T05:27:00.283Z,5.13
2023-05-19T05:28:25.025Z,4.82
2023-05-19T05:29:48.525Z,4.78
2023-05-19T05:31:12.450Z,5.05
2023-05-19T05:32:36.273Z,4.65
2023-05-19T05:34:08.172Z,4.57
2023-05-19T05:35:31.037Z,4.60
2023-05-19T05:36:53.832Z,5.20
2023-05-19T05:38:16.605Z,4.55
2023-05-19T05:39:40.527Z,4.78
2023-05-19T05:41:03.381Z,5.05
2023-05-19T05:42:29.744Z,5.00
2023-05-19T05:43:51.401Z,5.57
2023-05-19T05:45:14.100Z,4.65
2023-05-19T05:46:39.156Z,5.28
2023-05-19T05:48:02.188Z,5.22
2023-05-19T05:49:26.687Z,5.20
2023-05-19T05:50:51.260Z,5.13
2023-05-19T05:52:21.924Z,4.78
2023-05-19T05:53:52.869Z,5.22
2023-05-19T05:55:19.088Z,5.72
2023-05-19T05:56:43.273Z,5.97
2023-05-19T05:58:06.487Z,5.32
2023-05-19T05:59:29.799Z,5.38
2023-05-19T06:00:51.987Z,4.65
2023-05-19T06:03:38.203Z,5.40
2023-05-19T06:05:02.739Z,5.63
2023-05-19T06:06:23.938Z,5.55
2023-05-19T06:07:47.667Z,5.13
2023-05-19T06:09:22.110Z,5.32
2023-05-19T06:10:48.717Z,5.32
2023-05-19T06:12:12.408Z,5.82
2023-05-19T06:13:44.340Z,5.32
2023-05-19T06:15:17.330Z,5.10
2023-05-19T06:16:51.504Z,5.60
2023-05-19T06:18:13.973Z,6.35
2023-05-19T06:19:36.156Z,6.20
2023-05-19T06:20:58.302Z,5.88
2023-05-19T06:22:19.427Z,6.00
2023-05-19T06:23:41.967Z,5.43
2023-05-19T06:25:05.873Z,6.03
2023-05-19T06:26:30.978Z,6.30
2023-05-19T06:27:54.800Z,5.70
2023-05-19T06:29:20.551Z,5.43
2023-05-19T06:30:44.365Z,5.90
2023-05-19T06:32:16.888Z,5.30
2023-05-19T06:33:39.149Z,6.07
2023-05-19T06:35:01.633Z,5.72
2023-05-19T06:36:23.884Z,6.22
2023-05-19T06:37:48.414Z,6.32
2023-05-19T06:39:11.053Z,6.53
2023-05-19T06:40:37.129Z,6.65
2023-05-19T06:42:00.878Z,6.53
2023-05-19T06:45:21.938Z,6.07
2023-05-19T06:46:48.101Z,6.32
2023-05-19T06:48:10.836Z,6.05
2023-05-19T06:49:33.600Z,6.20
2023-05-19T06:50:57.467Z,6.18
2023-05-19T06:52:20.202Z,6.68
2023-05-19T06:53:42.618Z,6.72
2023-05-19T06:55:04.632Z,6.00
2023-05-19T06:56:28.010Z,5.97
2023-05-19T06:57:53.046Z,6.10
2023-05-19T06:59:16.375Z,5.57
2023-05-19T07:00:39.897Z,5.85
2023-05-19T07:02:04.923Z,6.13
2023-05-19T07:03:28.571Z,6.25
2023-05-19T07:04:52.840Z,6.28
2023-05-19T07:06:17.760Z,6.45
2023-05-19T07:07:40.057Z,5.70
2023-05-19T07:09:09.836Z,5.57
2023-05-19T07:10:33.865Z,5.93
2023-05-19T07:11:56.766Z,5.88
2023-05-19T07:13:20.695Z,5.63
2023-05-19T07:14:43.523Z,4.82
2023-05-19T07:16:07.150Z,5.85
2023-05-19T07:17:32.256Z,5.70
2023-05-19T07:18:54.533Z,4.82
2023-05-19T07:20:16.816Z,4.95
2023-05-19T07:21:39.184Z,6.20
2023-05-19T07:23:02.822Z,5.63
2023-05-19T07:24:26.173Z,5.32
2023-05-19T07:25:48.631Z,5.32
2023-05-19T07:27:11.333Z,5.40
2023-05-19T07:28:35.822Z,5.43
2023-05-19T07:29:57.723Z,5.30
2023-05-19T07:31:22.778Z,5.60
2023-05-19T07:32:44.942Z,4.70
2023-05-19T07:34:06.985Z,5.25
2023-05-19T07:36:51.640Z,5.60
2023-05-19T07:38:15.514Z,10.50
2023-05-19T07:39:37.862Z,5.78
2023-05-19T07:41:00.513Z,6.10
2023-05-19T07:42:25.712Z,4.70
2023-05-19T07:44:13.502Z,5.72
2023-05-19T07:45:36.013Z,5.28
2023-05-19T07:46:58.220Z,4.80
2023-05-19T07:48:24.792Z,5.38
2023-05-19T07:49:49.075Z,5.78
2023-05-19T07:51:14.719Z,5.70
2023-05-19T07:52:37.316Z,5.50
2023-05-19T07:54:08.521Z,5.13
2023-05-19T07:55:30.539Z,4.72
2023-05-19T07:56:55.672Z,5.90
2023-05-19T07:58:18.063Z,5.75
2023-05-19T07:59:50.787Z,6.22
2023-05-19T08:01:13.023Z,6.35
2023-05-19T08:02:39.764Z,5.50
2023-05-19T08:04:01.823Z,6.13
2023-05-19T08:05:30.677Z,5.95
2023-05-19T08:06:53.292Z,5.47
2023-05-19T08:08:16.997Z,5.10
2023-05-19T08:09:43.420Z,4.90
2023-05-19T08:11:06.807Z,4.88
2023-05-19T08:12:34.312Z,5.32
2023-05-19T08:13:59.151Z,5.10
2023-05-19T08:15:28.581Z,4.93
2023-05-19T08:16:51.921Z,4.72
2023-05-19T08:18:24.832Z,4.50
2023-05-19T08:19:47.147Z,4.63
2023-05-19T08:21:32.036Z,4.43
2023-05-19T08:22:54.954Z,4.50
2023-05-19T08:24:17.338Z,4.40
2023-05-19T08:25:39.570Z,4.80
2023-05-19T08:27:01.988Z,4.10
2023-05-19T08:28:23.929Z,4.68
2023-05-19T08:29:46.137Z,4.70
2023-05-19T08:31:28.519Z,4.90
2023-05-19T08:32:51.510Z,3.85
2023-05-19T08:34:13.752Z,4.78
2023-05-19T08:35:35.916Z,4.47
2023-05-19T08:36:59.969Z,4.05
2023-05-19T08:38:22.404Z,4.20
2023-05-19T08:39:46.075Z,4.30
2023-05-19T08:41:32.484Z,4.13
2023-05-19T08:42:58.615Z,4.68
2023-05-19T08:44:20.910Z,4.32
2023-05-19T08:45:46.647Z,4.18
2023-05-19T08:47:14.120Z,4.78
2023-05-19T08:48:43.552Z,5.03
2023-05-19T08:50:13.232Z,4.03
2023-05-19T08:52:03.417Z,5.10
2023-05-19T08:53:33.198Z,5.18
2023-05-19T08:55:10.023Z,4.70
2023-05-19T08:56:36.472Z,4.45
2023-05-19T08:58:13.244Z,4.47
2023-05-19T09:01:41.941Z,5.07
2023-05-19T09:03:18.269Z,4.90
2023-05-19T09:04:48.153Z,4.95
2023-05-19T09:06:12.726Z,5.22
2023-05-19T09:07:37.978Z,4.75
2023-05-19T09:09:04.204Z,4.30
2023-05-19T09:10:29.335Z,3.90
2023-05-19T09:11:51.463Z,4.50
2023-05-19T09:13:13.875Z,3.90
2023-05-19T09:14:41.691Z,3.90
2023-05-19T09:16:05.544Z,4.07
2023-05-19T09:17:27.882Z,4.05
2023-05-19T09:19:13.269Z,4.22
2023-05-19T09:20:40.464Z,3.55
2023-05-19T09:22:04.904Z,4.13
2023-05-19T09:23:37.498Z,4.40
2023-05-19T09:25:01.903Z,4.38
2023-05-19T09:26:27.789Z,4.05
2023-05-19T09:28:06.066Z,5.00
2023-05-19T09:29:28.792Z,4.22
2023-05-19T09:31:10.061Z,4.05
2023-05-19T09:32:32.405Z,4.85
2023-05-19T09:34:00.619Z,4.13
2023-05-19T09:35:25.302Z,4.45
2023-05-19T09:37:00.618Z,4.55
2023-05-19T09:38:27.078Z,3.83
2023-05-19T09:39:52.313Z,4.50
2023-05-19T09:41:18.949Z,4.65
2023-05-19T09:42:49.809Z,4.00
2023-05-19T09:44:23.416Z,4.70
2023-05-19T09:45:47.479Z,5.15
2023-05-19T09:47:11.427Z,5.00
2023-05-19T09:48:34.733Z,4.38
2023-05-19T09:50:01.800Z,4.30
2023-05-19T09:51:23.959Z,4.78
2023-05-19T09:52:50.480Z,4.90
2023-05-19T09:54:47.048Z,4.55
2023-05-19T09:56:10.434Z,4.65
2023-05-19T09:57:39.538Z,4.70
2023-05-19T09:59:02.929Z,5.00
2023-05-19T10:03:29.404Z,4.97
2023-05-19T10:04:53.547Z,4.97
2023-05-19T10:06:17.828Z,5.15
2023-05-19T10:07:44.740Z,5.53
2023-05-19T10:09:07.879Z,6.05
2023-05-19T10:10:49.937Z,5.57
2023-05-19T10:12:16.222Z,5.13
2023-05-19T10:13:40.066Z,5.05
2023-05-19T10:15:02.904Z,5.78
2023-05-19T10:16:29.591Z,5.28
2023-05-19T10:17:52.831Z,5.82
2023-05-19T10:19:19.386Z,6.68
2023-05-19T10:21:35.232Z,6.43
2023-05-19T10:22:59.346Z,7.53
2023-05-19T10:24:22.162Z,6.35
2023-05-19T10:26:05.267Z,6.55
2023-05-19T10:27:29.700Z,5.97
2023-05-19T10:29:28.832Z,7.80
2023-05-19T10:31:12.177Z,6.95
2023-05-19T10:32:35.849Z,6.85
2023-05-19T10:40:22.670Z,6.85
2023-05-19T10:42:19.229Z,7.47
2023-05-19T10:44:29.238Z,6.50
2023-05-19T10:46:20.373Z,6.50
2023-05-19T10:48:32.442Z,6.53
2023-05-19T10:50:19.515Z,6.18
2023-05-19T10:51:46.871Z,7.25
2023-05-19T10:53:19.474Z,7.65
2023-05-19T10:54:44.030Z,6.85
2023-05-19T10:56:53.689Z,7.07
2023-05-19T10:58:17.605Z,6.25
2023-05-19T10:59:40.162Z,5.90
2023-05-19T11:01:02.987Z,6.50
2023-05-19T11:03:36.676Z,6.93
2023-05-19T11:05:30.313Z,6.18
2023-05-19T11:07:06.349Z,6.38
2023-05-19T11:08:34.656Z,5.93
2023-05-19T11:10:08.357Z,6.88
2023-05-19T11:11:51.301Z,6.68
2023-05-19T11:13:42.499Z,6.40
2023-05-19T11:15:05.631Z,6.10
2023-05-19T11:16:53.901Z,5.93
2023-05-19T11:23:49.886Z,6.00
2023-05-19T11:31:58.739Z,6.55
2023-05-19T11:39:56.160Z,6.70
2023-05-19T11:44:15.248Z,6.30
2023-05-19T11:45:40.998Z,7.45
2023-05-19T11:48:07.852Z,6.38
2023-05-19T11:56:42.039Z,7.05
2023-05-19T11:58:06.213Z,6.82
2023-05-19T12:00:40.230Z,6.95
2023-05-19T12:02:15.918Z,7.00
2023-05-19T12:03:38.514Z,7.00
2023-05-19T12:05:09.748Z,6.95
2023-05-19T12:06:39.704Z,7.10
2023-05-19T12:08:13.687Z,8.98
2023-05-19T12:09:38.859Z,7.53
2023-05-19T12:11:04.999Z,7.55
2023-05-19T12:12:35.589Z,7.90
2023-05-19T12:14:00.376Z,8.18
2023-05-19T12:15:23.280Z,7.95
2023-05-19T12:16:45.895Z,7.93
2023-05-19T12:34:03.558Z,9.25
2023-05-19T12:35:44.936Z,9.32
2023-05-19T12:39:52.029Z,7.75
2023-05-19T12:41:16.937Z,7.72
2023-05-19T12:43:29.019Z,9.02
2023-05-19T12:48:40.739Z,7.50
2023-05-19T13:06:50.898Z,12.95
2023-05-19T13:08:14.924Z,12.13
2023-05-19T13:10:15.822Z,13.95
2023-05-19T13:11:38.892Z,12.95
2023-05-19T13:13:03.308Z,13.65
2023-05-19T13:15:15.398Z,14.73
2023-05-19T13:17:39.132Z,13.27
2023-05-19T13:19:01.746Z,13.95
2023-05-19T13:20:25.578Z,13.52
2023-05-19T13:21:52.246Z,14.23
2023-05-19T13:23:15.889Z,13.27
2023-05-19T13:24:44.061Z,14.38
2023-05-19T13:26:09.467Z,12.88
2023-05-19T13:27:31.145Z,14.07
2023-05-19T13:28:53.809Z,14.35
2023-05-19T13:30:52.920Z,15.07
2023-05-19T13:32:19.160Z,14.65
2023-05-19T13:33:56.753Z,14.73
2023-05-19T13:38:02.122Z,15.40
2023-05-19T13:39:47.204Z,15.30
2023-05-19T13:42:45.726Z,14.52
2023-05-19T13:44:50.495Z,14.60
2023-05-19T13:48:46.574Z,14.35
2023-05-19T13:55:33.781Z,16.17
2023-05-19T14:00:44.549Z,14.90
2023-05-19T14:02:40.176Z,15.23
2023-05-19T14:07:49.806Z,15.15
2023-05-19T14:10:25.281Z,15.27
2023-05-19T14:13:42.730Z,16.05
2023-05-19T14:15:09.845Z,17.15
2023-05-19T14:16:35.482Z,15.65
2023-05-19T14:18:21.753Z,15.57
2023-05-19T14:19:44.085Z,15.15
2023-05-19T14:21:42.380Z,21.40
2023-05-19T14:23:04.522Z,15.75
2023-05-19T14:24:26.818Z,15.95
2023-05-19T14:25:49.025Z,15.68
2023-05-19T14:27:11.185Z,15.00
2023-05-19T14:28:32.387Z,15.10
2023-05-19T14:29:58.268Z,16.20
2023-05-19T14:31:29.316Z,16.20
2023-05-19T14:32:58.120Z,16.40
2023-05-19T14:34:21.237Z,16.02
2023-05-19T14:35:43.651Z,18.13
2023-05-19T14:37:06.252Z,17.65
2023-05-19T14:38:29.413Z,16.65
2023-05-19T14:39:52.109Z,17.17
2023-05-19T14:42:35.860Z,17.42
2023-05-19T14:43:59.260Z,16.52
2023-05-19T14:45:25.815Z,18.02
2023-05-19T14:46:47.154Z,17.17
2023-05-19T14:48:10.953Z,16.88
2023-05-19T14:49:33.288Z,18.30
2023-05-19T14:50:55.929Z,17.02
2023-05-19T14:52:18.060Z,18.23
2023-05-19T14:53:40.387Z,17.17
2023-05-19T14:55:02.951Z,16.83
2023-05-19T14:56:34.048Z,17.58
2023-05-19T14:58:28.478Z,18.02
2023-05-19T14:59:51.922Z,17.17
2023-05-19T15:01:15.441Z,18.38
2023-05-19T15:02:37.429Z,18.30
2023-05-19T15:04:06.058Z,18.25
2023-05-19T15:05:35.830Z,17.92
2023-05-19T15:07:10.629Z,18.85
2023-05-19T15:08:33.405Z,19.30
2023-05-19T15:09:55.651Z,19.17
2023-05-19T15:11:17.822Z,19.35
2023-05-19T15:12:40.172Z,19.70
2023-05-19T15:14:01.251Z,20.25
2023-05-19T15:15:23.548Z,20.83
2023-05-19T15:16:47.395Z,20.00
2023-05-19T15:18:09.685Z,19.92
2023-05-19T15:19:31.826Z,19.13
2023-05-19T15:20:53.890Z,18.23
2023-05-19T15:22:25.650Z,18.85
2023-05-19T15:23:50.348Z,18.20
2023-05-19T15:25:15.380Z,19.52
2023-05-19T15:26:41.017Z,18.73
2023-05-19T15:28:04.023Z,18.63
2023-05-19T15:29:26.028Z,20.20
2023-05-19T15:30:48.424Z,20.42
2023-05-19T15:33:37.509Z,19.00
2023-05-19T15:34:59.621Z,19.35
2023-05-19T15:36:27.539Z,19.50
2023-05-19T15:37:51.815Z,21.65
2023-05-19T15:39:37.550Z,20.65
2023-05-19T15:41:00.072Z,20.92
2023-05-19T15:42:22.286Z,21.05
2023-05-19T15:45:10.625Z,20.08
2023-05-19T15:46:41.535Z,21.13
2023-05-19T15:48:09.081Z,20.33
2023-05-19T15:49:32.289Z,19.85
2023-05-19T15:50:55.025Z,19.02
2023-05-19T15:52:17.473Z,19.92
2023-05-19T15:53:42.913Z,18.67
2023-05-19T15:55:04.427Z,20.48
2023-05-19T15:56:26.832Z,20.08
2023-05-19T15:57:49.039Z,19.02
2023-05-19T15:59:10.179Z,19.52
2023-05-19T16:00:45.549Z,18.83
2023-05-19T16:02:08.288Z,20.10
2023-05-19T16:03:31.928Z,19.40
2023-05-19T16:04:54.169Z,20.05
2023-05-19T16:06:16.523Z,18.90
2023-05-19T16:07:42.325Z,17.75
2023-05-19T16:09:04.457Z,19.92
2023-05-19T16:10:26.522Z,17.20
2023-05-19T16:11:49.806Z,19.00
2023-05-19T16:13:12.045Z,19.27
2023-05-19T16:15:59.089Z,19.30
2023-05-19T16:17:20.084Z,17.95
2023-05-19T16:18:50.216Z,18.27
2023-05-19T16:20:13.016Z,18.10
2023-05-19T16:21:33.939Z,17.92
2023-05-19T16:22:58.579Z,19.30
2023-05-19T16:24:20.766Z,18.92
2023-05-19T16:25:45.607Z,18.65
2023-05-19T16:28:31.360Z,17.40
2023-05-19T16:29:54.876Z,16.77
2023-05-19T16:31:17.172Z,18.38
2023-05-19T16:32:39.716Z,16.40
2023-05-19T16:34:19.940Z,17.30
2023-05-19T16:35:42.056Z,17.10
2023-05-19T16:37:13.840Z,16.85
2023-05-19T16:38:35.960Z,18.25
2023-05-19T16:39:57.296Z,16.90
2023-05-19T16:41:19.430Z,17.45
2023-05-19T16:42:48.693Z,16.80
2023-05-19T16:44:14.761Z,17.33
2023-05-19T16:45:36.150Z,16.13
2023-05-19T16:47:01.331Z,17.13
2023-05-19T16:50:00.472Z,15.73
2023-05-19T16:51:27.754Z,16.63
2023-05-19T16:52:50.052Z,15.38
2023-05-19T16:54:12.430Z,16.48
2023-05-19T16:56:56.128Z,16.43
2023-05-19T16:58:17.472Z,16.83
2023-05-19T16:59:49.865Z,16.33
2023-05-19T17:01:17.494Z,15.80
2023-05-19T17:02:41.215Z,17.58
2023-05-19T17:04:21.659Z,17.17
2023-05-19T17:05:45.113Z,16.15
2023-05-19T17:07:07.225Z,17.13
2023-05-19T17:08:29.558Z,16.08
2023-05-19T17:09:53.937Z,17.23
2023-05-19T17:11:17.414Z,17.02
2023-05-19T17:12:39.779Z,16.92
2023-05-19T17:14:02.148Z,17.67
2023-05-19T17:15:24.249Z,18.10
2023-05-19T17:16:46.805Z,16.55
2023-05-19T17:18:08.953Z,17.10
2023-05-19T17:19:31.647Z,17.15
2023-05-19T17:20:55.609Z,18.33
2023-05-19T17:22:17.005Z,16.42
2023-05-19T17:23:39.405Z,17.98
2023-05-19T17:25:13.894Z,17.45
2023-05-19T17:26:45.333Z,17.35
2023-05-19T17:28:18.384Z,16.63
2023-05-19T17:29:42.665Z,17.35
2023-05-19T17:31:13.093Z,16.85
2023-05-19T17:32:39.533Z,17.30
2023-05-19T17:34:15.470Z,15.07
2023-05-19T17:35:39.092Z,15.63
2023-05-19T17:37:06.232Z,14.63
2023-05-19T17:38:28.742Z,15.75
2023-05-19T17:39:51.149Z,15.18
2023-05-19T17:41:22.053Z,16.73
2023-05-19T17:42:44.538Z,16.02
2023-05-19T17:44:07.585Z,16.27
2023-05-19T17:45:57.262Z,16.77
2023-05-19T17:47:23.803Z,16.92
2023-05-19T17:48:48.837Z,16.55
2023-05-19T17:50:12.245Z,15.50
2023-05-19T17:51:34.796Z,17.42
2023-05-19T17:52:58.964Z,18.42
2023-05-19T17:54:26.335Z,17.75
2023-05-19T17:55:52.668Z,16.52
2023-05-19T17:57:18.655Z,18.77
2023-05-19T17:58:41.592Z,19.17
2023-05-19T18:00:05.008Z,18.73
2023-05-19T18:01:30.980Z,18.85
2023-05-19T18:03:06.213Z,18.92
2023-05-19T18:04:35.424Z,19.58
2023-05-19T18:06:02.197Z,19.90
2023-05-19T18:07:25.473Z,19.40
2023-05-19T18:08:51.633Z,18.50
2023-05-19T18:10:16.944Z,18.25
2023-05-19T18:11:39.008Z,19.92
2023-05-19T18:14:23.003Z,17.80
2023-05-19T18:15:45.335Z,18.75
2023-05-19T18:17:12.218Z,19.17
2023-05-19T18:18:37.410Z,18.85
2023-05-19T18:19:59.468Z,18.45
2023-05-19T18:21:21.630Z,17.80
2023-05-19T18:22:44.118Z,19.52
2023-05-19T18:24:08.471Z,19.58
2023-05-19T18:25:31.516Z,18.50
2023-05-19T18:26:56.305Z,20.23
2023-05-19T18:28:18.705Z,19.48
2023-05-19T18:29:40.855Z,20.45
2023-05-19T18:31:08.719Z,20.50
2023-05-19T18:32:31.096Z,19.92
2023-05-19T18:33:53.319Z,18.02
2023-05-19T18:35:16.064Z,19.80
2023-05-19T18:36:38.132Z,20.08
2023-05-19T18:38:00.194Z,18.83
2023-05-19T18:39:29.263Z,19.63
2023-05-19T18:40:56.823Z,18.48
2023-05-19T18:42:19.451Z,18.88
2023-05-19T18:43:41.551Z,17.95
2023-05-19T18:45:03.849Z,17.73
2023-05-19T18:46:26.566Z,18.63
2023-05-19T18:47:49.036Z,19.33
2023-05-19T18:49:13.771Z,18.27
2023-05-19T18:50:41.350Z,18.85
2023-05-19T18:52:04.979Z,19.27
2023-05-19T18:53:27.249Z,18.95
2023-05-19T18:54:51.011Z,19.52
2023-05-19T18:56:15.372Z,17.63
2023-05-19T18:57:38.042Z,18.42
2023-05-19T18:59:00.103Z,19.27
2023-05-19T19:00:22.503Z,19.08
2023-05-19T19:01:46.953Z,18.63
2023-05-19T19:03:10.464Z,19.15
2023-05-19T19:04:35.461Z,18.60
2023-05-19T19:05:58.830Z,18.58
2023-05-19T19:07:21.225Z,19.55
2023-05-19T19:08:43.704Z,18.90
2023-05-19T19:10:18.853Z,18.65
2023-05-19T19:11:41.889Z,18.83
2023-05-19T19:13:02.874Z,18.45
2023-05-19T19:14:25.190Z,18.02
2023-05-19T19:15:46.994Z,19.35
2023-05-19T19:17:09.762Z,19.60
2023-05-19T19:18:34.786Z,19.40
2023-05-19T19:19:57.397Z,18.90
2023-05-19T19:21:23.057Z,18.48
2023-05-19T19:22:47.255Z,19.38
2023-05-19T19:24:09.779Z,19.23
2023-05-19T19:25:37.711Z,17.95
2023-05-19T19:26:59.070Z,18.75
2023-05-19T19:28:22.277Z,19.10
2023-05-19T19:29:47.476Z,20.13
2023-05-19T19:31:15.545Z,19.50
2023-05-19T19:32:38.016Z,19.00
2023-05-19T19:34:25.642Z,19.90
2023-05-19T19:35:54.384Z,19.05
2023-05-19T19:37:22.632Z,18.38
2023-05-19T19:38:45.062Z,19.73
2023-05-19T19:40:08.700Z,19.20
2023-05-19T19:41:33.560Z,19.52
2023-05-19T19:43:07.130Z,21.08
2023-05-19T19:44:29.659Z,21.40
2023-05-19T19:46:00.771Z,19.83
2023-05-19T19:47:23.465Z,20.42
2023-05-19T19:48:48.417Z,19.92
2023-05-19T19:50:18.370Z,20.60
2023-05-19T19:51:40.624Z,20.70
2023-05-19T19:53:03.105Z,21.38
2023-05-19T19:54:25.531Z,20.50
2023-05-19T19:57:11.632Z,22.07
2023-05-19T19:58:33.996Z,21.42
2023-05-19T20:01:28.051Z,21.55
2023-05-19T20:03:02.683Z,21.65
2023-05-19T20:04:28.462Z,21.15
2023-05-19T20:05:51.535Z,21.83
2023-05-19T20:07:14.357Z,21.95
2023-05-19T20:08:37.658Z,21.23
2023-05-19T20:10:00.274Z,20.55
2023-05-19T20:11:24.988Z,21.35
2023-05-19T20:12:54.510Z,21.35
2023-05-19T20:14:26.699Z,22.05
2023-05-19T20:15:50.160Z,22.15
2023-05-19T20:17:12.582Z,21.45
2023-05-19T20:18:34.992Z,22.05
2023-05-19T20:20:00.256Z,22.63
2023-05-19T20:21:22.565Z,21.35
2023-05-19T20:22:46.649Z,20.92
2023-05-19T20:24:08.942Z,22.92
2023-05-19T20:25:57.867Z,23.08
2023-05-19T20:27:25.628Z,21.50
2023-05-19T20:28:49.428Z,22.20
2023-05-19T20:30:11.808Z,23.92
2023-05-19T20:31:34.354Z,21.55
2023-05-19T20:32:56.473Z,22.65
2023-05-19T20:34:18.912Z,21.55
2023-05-19T20:35:41.473Z,22.35
2023-05-19T20:37:03.933Z,21.88
2023-05-19T20:38:26.461Z,21.35
2023-05-19T20:39:53.668Z,21.35
2023-05-19T20:41:16.509Z,22.38
2023-05-19T20:42:41.116Z,23.42
2023-05-19T20:44:04.663Z,22.27
2023-05-19T20:45:32.913Z,22.75
2023-05-19T20:47:03.231Z,22.38
2023-05-19T20:48:25.799Z,22.83
2023-05-19T20:50:07.485Z,23.00
2023-05-19T20:51:32.930Z,21.52
2023-05-19T20:52:59.794Z,22.17
2023-05-19T20:54:21.849Z,22.35
2023-05-19T20:55:46.455Z,22.75
2023-05-19T20:57:09.500Z,23.13
2023-05-19T20:58:31.646Z,23.80
2023-05-19T20:59:55.139Z,24.20
2023-05-19T21:01:18.172Z,22.52
2023-05-19T21:02:40.712Z,23.58
2023-05-19T21:04:06.873Z,22.35
2023-05-19T21:05:29.371Z,22.70
2023-05-19T21:06:51.931Z,23.55
2023-05-19T21:08:14.480Z,23.42
2023-05-19T21:09:36.605Z,23.20